createdAt,value
2023-03-02T00:02:22.494Z,26.02
2023-03-02T00:04:53.620Z,25.17
2023-03-02T00:07:26.895Z,26.77
2023-03-02T00:09:54.760Z,24.83
2023-03-02T00:12:22.421Z,25.42
2023-03-02T00:14:50.103Z,24.77
2023-03-02T00:17:17.661Z,23.40
2023-03-02T00:19:45.559Z,24.38
2023-03-02T00:22:14.567Z,22.60
2023-03-02T00:24:42.185Z,22.88
2023-03-02T00:27:09.778Z,23.33
2023-03-02T00:29:37.407Z,23.58
2023-03-02T00:32:06.224Z,23.77
2023-03-02T00:34:33.878Z,23.42
2023-03-02T00:37:01.551Z,24.67
2023-03-02T00:39:30.513Z,24.00
2023-03-02T00:41:58.148Z,23.42
2023-03-02T00:44:25.807Z,21.05
2023-03-02T00:46:53.417Z,21.23
2023-03-02T00:49:21.162Z,20.95
2023-03-02T00:51:48.782Z,20.73
2023-03-02T00:54:16.370Z,21.58
2023-03-02T00:56:46.168Z,20.77
2023-03-02T00:59:26.283Z,20.92
2023-03-02T01:01:58.136Z,20.90
2023-03-02T01:04:29.555Z,20.27
2023-03-02T01:06:57.748Z,21.63
2023-03-02T01:09:25.797Z,21.15
2023-03-02T01:11:54.864Z,20.00
2023-03-02T01:14:22.591Z,18.45
2023-03-02T01:16:50.291Z,19.70
2023-03-02T01:19:18.515Z,20.60
2023-03-02T01:21:46.151Z,19.08
2023-03-02T01:24:13.926Z,18.80
2023-03-02T01:26:41.546Z,20.92
2023-03-02T01:29:11.621Z,20.23
2023-03-02T01:31:39.419Z,20.70
2023-03-02T01:34:07.268Z,18.77
2023-03-02T01:36:35.337Z,20.90
2023-03-02T01:39:03.199Z,18.75
2023-03-02T01:41:30.782Z,17.90
2023-03-02T01:43:58.545Z,19.40
2023-03-02T01:46:28.693Z,20.23
2023-03-02T01:48:59.646Z,18.95
2023-03-02T01:51:28.262Z,18.38
2023-03-02T01:54:00.248Z,18.25
2023-03-02T01:56:30.602Z,17.42
2023-03-02T01:59:02.382Z,17.95
2023-03-02T02:01:33.794Z,19.13
2023-03-02T02:04:01.724Z,18.40
2023-03-02T02:06:34.233Z,16.77
2023-03-02T02:09:02.871Z,17.77
2023-03-02T02:11:30.448Z,17.55
2023-03-02T02:13:59.369Z,17.30
2023-03-02T02:16:27.482Z,16.80
2023-03-02T02:18:56.964Z,16.25
2023-03-02T02:21:25.839Z,15.63
2023-03-02T02:24:04.418Z,15.60
2023-03-02T02:26:35.711Z,15.60
2023-03-02T02:29:07.830Z,15.35
2023-03-02T02:31:37.692Z,15.63
2023-03-02T02:34:13.554Z,16.00
2023-03-02T02:36:44.728Z,16.23
2023-03-02T02:39:16.418Z,14.80
2023-03-02T02:41:47.145Z,15.32
2023-03-02T02:44:16.149Z,14.82
2023-03-02T02:46:44.811Z,15.02
2023-03-02T02:49:22.744Z,14.98
2023-03-02T02:51:50.351Z,14.40
2023-03-02T02:54:19.554Z,13.88
2023-03-02T02:56:50.107Z,13.38
2023-03-02T02:59:20.910Z,14.75
2023-03-02T03:01:49.293Z,15.55
2023-03-02T03:04:20.544Z,13.95
2023-03-02T03:06:52.494Z,13.85
2023-03-02T03:09:20.307Z,13.73
2023-03-02T03:11:50.926Z,14.27
2023-03-02T03:14:20.148Z,14.15
2023-03-02T03:16:49.160Z,15.00
2023-03-02T03:19:19.404Z,13.68
2023-03-02T03:21:47.135Z,14.60
2023-03-02T03:24:14.722Z,15.07
2023-03-02T03:26:42.422Z,14.40
2023-03-02T03:29:11.484Z,14.60
2023-03-02T03:31:39.101Z,14.93
2023-03-02T03:34:07.093Z,13.75
2023-03-02T03:36:35.399Z,15.32
2023-03-02T03:39:04.281Z,14.35
2023-03-02T03:41:31.905Z,15.23
2023-03-02T03:43:59.468Z,15.13
2023-03-02T03:46:28.585Z,17.23
2023-03-02T03:48:56.425Z,16.00
2023-03-02T03:51:24.142Z,16.38
2023-03-02T03:53:59.811Z,16.00
2023-03-02T03:56:27.723Z,15.85
2023-03-02T03:59:06.131Z,15.90
2023-03-02T04:01:36.712Z,16.88
2023-03-02T04:04:05.587Z,15.30
2023-03-02T04:06:33.548Z,14.80
2023-03-02T04:09:04.778Z,15.90
2023-03-02T04:11:32.796Z,15.32
2023-03-02T04:14:00.514Z,15.88
2023-03-02T04:16:28.438Z,16.35
2023-03-02T04:18:57.599Z,16.92
2023-03-02T04:21:25.228Z,16.70
2023-03-02T04:23:52.759Z,17.83
2023-03-02T04:26:20.472Z,16.15
2023-03-02T04:28:50.673Z,16.13
2023-03-02T04:31:18.402Z,17.95
2023-03-02T04:33:46.059Z,16.35
2023-03-02T04:36:15.001Z,17.20
2023-03-02T04:38:42.623Z,17.65
2023-03-02T04:41:10.214Z,19.45
2023-03-02T04:43:37.815Z,17.50
2023-03-02T04:46:05.740Z,18.63
2023-03-02T04:48:33.328Z,18.83
2023-03-02T04:51:00.941Z,18.17
2023-03-02T04:53:29.907Z,19.85
2023-03-02T04:55:57.518Z,19.55
2023-03-02T04:58:25.062Z,18.95
2023-03-02T05:00:54.688Z,20.80
2023-03-02T05:05:49.680Z,19.73
2023-03-02T05:08:17.226Z,19.40
2023-03-02T05:10:46.181Z,18.13
2023-03-02T05:13:13.791Z,17.42
2023-03-02T05:15:43.496Z,18.00
2023-03-02T05:20:40.536Z,16.05
2023-03-02T05:23:10.111Z,18.17
2023-03-02T05:25:38.929Z,16.90
2023-03-02T05:28:07.885Z,17.20
2023-03-02T05:30:37.647Z,17.25
2023-03-02T05:33:05.397Z,17.83
2023-03-02T05:35:33.000Z,18.15
2023-03-02T05:38:00.651Z,17.00
2023-03-02T05:40:28.362Z,16.65
2023-03-02T05:42:56.117Z,17.83
2023-03-02T05:45:26.799Z,17.83
2023-03-02T05:47:54.639Z,16.65
2023-03-02T05:50:22.675Z,16.75
2023-03-02T05:52:50.953Z,18.25
2023-03-02T05:55:19.421Z,18.23
2023-03-02T05:57:49.215Z,18.48
2023-03-02T06:00:18.229Z,18.42
2023-03-02T06:02:47.232Z,18.05
2023-03-02T06:05:16.156Z,17.98
2023-03-02T06:07:44.019Z,17.10
2023-03-02T06:10:13.670Z,19.15
2023-03-02T06:15:09.882Z,18.15
2023-03-02T06:17:37.604Z,17.00
2023-03-02T06:20:11.054Z,20.23
2023-03-02T06:22:41.169Z,18.95
2023-03-02T06:25:10.115Z,18.95
2023-03-02T06:27:38.385Z,19.08
2023-03-02T06:30:07.587Z,18.95
2023-03-02T06:32:35.561Z,18.55
2023-03-02T06:35:03.839Z,18.85
2023-03-02T06:37:33.496Z,21.83
2023-03-02T06:40:01.313Z,19.95
2023-03-02T06:42:29.368Z,21.10
2023-03-02T06:44:56.941Z,20.75
2023-03-02T06:47:25.266Z,21.02
2023-03-02T06:49:52.846Z,22.40
2023-03-02T06:52:20.477Z,22.88
2023-03-02T06:54:49.447Z,22.20
2023-03-02T06:57:17.049Z,20.50
2023-03-02T06:59:44.667Z,21.27
2023-03-02T07:02:12.701Z,19.90
2023-03-02T07:04:40.443Z,18.50
2023-03-02T07:07:07.977Z,18.35
2023-03-02T07:09:35.520Z,17.55
2023-03-02T07:12:04.827Z,18.38
2023-03-02T07:14:32.437Z,17.88
2023-03-02T07:17:00.247Z,17.67
2023-03-02T07:19:28.059Z,20.77
2023-03-02T07:21:55.579Z,19.70
2023-03-02T07:24:23.408Z,19.63
2023-03-02T07:26:51.024Z,17.73
2023-03-02T07:29:20.036Z,18.05
2023-03-02T07:31:48.550Z,18.85
2023-03-02T07:34:16.491Z,17.15
2023-03-02T07:36:44.086Z,17.70
2023-03-02T07:39:11.644Z,17.23
2023-03-02T07:41:39.220Z,18.75
2023-03-02T07:44:06.773Z,19.58
2023-03-02T07:46:35.736Z,18.17
2023-03-02T07:49:03.572Z,20.98
2023-03-02T07:51:31.599Z,20.55
2023-03-02T07:53:59.461Z,20.63
2023-03-02T07:56:27.054Z,20.83
2023-03-02T07:58:54.664Z,19.33
2023-03-02T08:01:22.273Z,19.80
2023-03-02T08:03:51.277Z,18.63
2023-03-02T08:06:19.007Z,18.67
2023-03-02T08:08:46.650Z,18.88
2023-03-02T08:11:16.230Z,21.50
2023-03-02T08:13:44.221Z,17.90
2023-03-02T08:16:14.263Z,18.10
2023-03-02T08:18:42.393Z,17.92
2023-03-02T08:21:16.455Z,19.50
2023-03-02T08:23:44.668Z,18.20
2023-03-02T08:26:14.817Z,17.60
2023-03-02T08:28:44.379Z,18.52
2023-03-02T08:31:12.303Z,17.95
2023-03-02T08:33:40.040Z,17.80
2023-03-02T08:36:09.604Z,18.33
2023-03-02T08:41:07.748Z,17.27
2023-03-02T08:43:36.002Z,18.73
2023-03-02T15:07:46.789Z,8.70
2023-03-02T15:10:16.809Z,7.57
2023-03-02T15:12:44.520Z,8.80
2023-03-02T15:15:13.058Z,8.55
2023-03-02T15:17:42.280Z,7.35
2023-03-02T15:20:14.823Z,6.30
2023-03-02T15:22:42.483Z,6.50
2023-03-02T15:25:10.670Z,6.65
2023-03-02T15:27:38.253Z,7.20
2023-03-02T15:30:06.704Z,6.93
2023-03-02T15:32:34.384Z,6.72
2023-03-02T15:35:04.015Z,6.15
2023-03-02T15:37:31.655Z,7.88
2023-03-02T15:39:59.363Z,6.63
2023-03-02T15:42:27.039Z,6.57
2023-03-02T15:44:54.700Z,7.78
2023-03-02T15:47:22.444Z,6.75
2023-03-02T15:49:50.103Z,5.90
2023-03-02T15:52:19.947Z,6.28
2023-03-02T15:54:47.605Z,6.03
2023-03-02T15:57:15.338Z,6.43
2023-03-02T15:59:43.625Z,5.28
2023-03-02T16:02:11.504Z,6.70
2023-03-02T16:04:39.189Z,6.00
2023-03-02T16:07:06.796Z,6.10
2023-03-02T16:09:35.753Z,6.28
2023-03-02T16:12:03.436Z,5.97
2023-03-02T16:14:31.053Z,5.60
2023-03-02T16:16:58.610Z,6.47
2023-03-02T16:19:26.218Z,5.85
2023-03-02T16:21:53.835Z,5.90
2023-03-02T16:24:21.536Z,6.45
2023-03-02T16:26:50.857Z,7.25
2023-03-02T16:29:18.498Z,7.25
2023-03-02T16:31:49.014Z,6.63
2023-03-02T16:34:17.476Z,7.45
2023-03-02T16:36:45.248Z,6.55
2023-03-02T16:39:13.691Z,7.40
2023-03-02T16:41:42.420Z,6.35
2023-03-02T16:44:12.329Z,6.70
2023-03-02T16:46:43.257Z,7.63
2023-03-02T16:49:11.526Z,7.22
2023-03-02T16:51:39.598Z,6.47
2023-03-02T16:54:07.450Z,7.03
2023-03-02T16:56:35.048Z,6.75
2023-03-02T16:59:02.677Z,6.72
2023-03-02T17:01:31.654Z,6.22
2023-03-02T17:03:59.363Z,6.57
2023-03-02T17:06:26.993Z,7.10
2023-03-02T17:08:54.762Z,6.95
2023-03-02T17:11:22.399Z,7.65
2023-03-02T17:13:49.941Z,7.53
2023-03-02T17:16:19.118Z,7.28
2023-03-02T17:18:48.116Z,7.10
2023-03-02T17:21:17.206Z,6.95
2023-03-02T17:23:47.784Z,7.22
2023-03-02T17:26:15.467Z,8.18
2023-03-02T17:28:43.038Z,7.35
2023-03-02T17:31:10.695Z,6.85
2023-03-02T17:33:38.788Z,6.35
2023-03-02T17:36:11.783Z,8.40
2023-03-02T17:38:39.515Z,7.40
2023-03-02T17:41:07.708Z,6.57
2023-03-02T17:43:37.141Z,7.75
2023-03-02T17:46:15.977Z,6.90
2023-03-02T17:48:44.055Z,6.75
2023-03-02T17:51:14.853Z,7.50
2023-03-02T17:53:42.643Z,9.48
2023-03-02T17:56:10.354Z,9.35
2023-03-02T17:58:44.989Z,7.90
2023-03-02T18:01:15.660Z,7.43
2023-03-02T18:03:44.928Z,7.93
2023-03-02T18:06:14.648Z,7.68
2023-03-02T18:08:42.217Z,8.98
2023-03-02T18:11:09.873Z,8.45
2023-03-02T18:13:37.490Z,8.77
2023-03-02T18:16:05.433Z,8.20
2023-03-02T18:18:33.105Z,10.95
2023-03-02T18:21:00.961Z,7.60
2023-03-02T18:23:30.169Z,8.48
2023-03-02T18:25:58.129Z,8.50
2023-03-02T18:28:25.827Z,7.38
2023-03-02T18:30:53.522Z,7.70
2023-03-02T18:33:21.118Z,8.25
2023-03-02T18:35:48.876Z,8.82
2023-03-02T18:38:16.494Z,8.13
2023-03-02T18:40:45.457Z,8.77
2023-03-02T18:43:13.160Z,8.80
2023-03-02T18:45:41.548Z,8.43
2023-03-02T18:48:09.486Z,7.82
2023-03-02T18:50:37.109Z,8.10
2023-03-02T18:53:04.682Z,7.55
2023-03-02T18:55:32.412Z,8.85
2023-03-02T18:58:01.401Z,8.60
2023-03-02T19:00:29.262Z,7.80
2023-03-02T19:02:57.334Z,8.48
2023-03-02T19:05:27.044Z,8.88
2023-03-02T19:07:55.233Z,8.23
2023-03-02T19:10:22.819Z,7.60
2023-03-02T19:12:50.569Z,8.02
2023-03-02T19:15:19.580Z,8.10
2023-03-02T19:17:47.309Z,8.07
2023-03-02T19:20:16.548Z,7.10
2023-03-02T19:22:44.130Z,7.30
2023-03-02T19:25:11.988Z,11.73
2023-03-02T19:27:39.767Z,9.18
2023-03-02T19:30:08.987Z,8.93
2023-03-02T19:32:38.442Z,9.48
2023-03-02T19:35:07.024Z,8.30
2023-03-02T19:37:34.576Z,7.78
2023-03-02T19:40:02.414Z,9.07
2023-03-02T19:42:33.712Z,9.27
2023-03-02T19:45:03.180Z,8.10
2023-03-02T19:47:32.090Z,7.30
2023-03-02T19:50:01.051Z,7.40
2023-03-02T19:52:28.673Z,12.05
2023-03-02T19:54:56.429Z,9.50
2023-03-02T19:57:25.085Z,8.43
2023-03-02T19:59:52.892Z,7.75
2023-03-02T20:02:20.549Z,7.85
2023-03-02T20:04:50.836Z,8.15
2023-03-02T20:07:20.255Z,7.07
2023-03-02T20:09:48.080Z,7.53
2023-03-02T20:12:15.719Z,8.60
2023-03-02T20:14:44.318Z,7.63
2023-03-02T20:17:11.925Z,7.57
2023-03-02T20:19:39.464Z,7.07
2023-03-02T20:22:07.721Z,8.20
2023-03-02T20:24:36.789Z,8.07
2023-03-02T20:27:06.878Z,8.82
2023-03-02T20:29:34.662Z,8.20
2023-03-02T20:32:03.147Z,9.57
2023-03-02T20:34:31.581Z,9.27
2023-03-02T20:37:01.524Z,9.13
2023-03-02T20:39:32.873Z,7.05
2023-03-02T20:42:01.988Z,7.13
2023-03-02T20:44:31.047Z,7.22
2023-03-02T20:47:01.217Z,6.80
2023-03-02T20:49:30.493Z,6.13
2023-03-02T20:51:59.801Z,6.65
2023-03-02T20:54:30.239Z,5.45
2023-03-02T20:56:58.053Z,5.32
2023-03-02T20:59:27.584Z,5.55
2023-03-02T21:01:56.536Z,4.95
2023-03-02T21:04:24.313Z,4.82
2023-03-02T21:06:52.746Z,4.22
2023-03-02T21:09:21.291Z,4.28
2023-03-02T21:11:49.027Z,5.40
2023-03-02T21:14:17.019Z,4.85
2023-03-02T21:16:46.269Z,6.18
2023-03-02T21:19:17.288Z,5.65
2023-03-02T21:21:45.366Z,5.43
2023-03-02T21:24:16.733Z,5.60
2023-03-02T21:26:45.269Z,5.90
2023-03-02T21:29:13.494Z,5.93
2023-03-02T21:31:42.219Z,5.20
2023-03-02T21:34:11.766Z,4.47
2023-03-02T21:36:39.685Z,5.25
2023-03-02T21:39:08.619Z,4.95
2023-03-02T21:41:36.781Z,6.38
2023-03-02T21:44:05.670Z,5.53
2023-03-02T21:46:34.438Z,5.45
2023-03-02T21:49:02.127Z,7.43
2023-03-02T21:51:31.318Z,5.90
2023-03-02T21:53:59.055Z,5.78
2023-03-02T21:56:27.292Z,5.13
2023-03-02T21:58:57.046Z,5.70
2023-03-02T22:01:25.291Z,5.43
2023-03-02T22:03:53.405Z,5.82
2023-03-02T22:06:23.358Z,5.32
2023-03-02T22:08:52.586Z,5.65
2023-03-02T22:11:22.687Z,6.88
2023-03-02T22:13:51.536Z,5.95
2023-03-02T22:16:20.633Z,5.57
2023-03-02T22:18:50.134Z,4.72
2023-03-02T22:21:32.378Z,5.07
2023-03-02T22:24:20.125Z,4.80
2023-03-02T22:26:49.160Z,4.15
2023-03-02T22:29:18.338Z,3.90
2023-03-02T22:31:47.973Z,4.20
2023-03-02T22:36:43.812Z,4.03
2023-03-02T22:39:15.879Z,4.45
2023-03-02T22:41:45.238Z,3.25
2023-03-02T22:44:14.133Z,3.42
2023-03-02T22:46:42.822Z,3.67
2023-03-02T22:49:16.621Z,3.77
2023-03-02T22:51:44.854Z,4.03
2023-03-02T22:54:23.637Z,3.03
2023-03-02T22:56:53.838Z,3.03
2023-03-02T22:59:24.409Z,2.67
2023-03-02T23:01:52.600Z,2.35
2023-03-02T23:04:22.582Z,2.30
2023-03-02T23:06:51.790Z,1.95
2023-03-02T23:09:21.925Z,1.42
2023-03-02T23:11:50.546Z,1.92
2023-03-02T23:14:25.341Z,2.10
2023-03-02T23:16:56.274Z,2.42
2023-03-02T23:19:24.042Z,1.75
2023-03-02T23:21:51.720Z,2.38
2023-03-02T23:24:21.837Z,1.80
2023-03-02T23:26:50.524Z,1.80
2023-03-02T23:29:18.341Z,1.73
2023-03-02T23:31:47.409Z,1.80
2023-03-02T23:34:15.294Z,1.33
2023-03-02T23:36:43.733Z,1.98
2023-03-02T23:39:11.800Z,1.75
2023-03-02T23:41:39.875Z,1.88
2023-03-02T23:44:08.551Z,1.60
2023-03-02T23:46:36.194Z,1.40
2023-03-02T23:49:05.370Z,1.58
2023-03-02T23:51:33.149Z,1.70
2023-03-02T23:54:01.816Z,1.48
2023-03-02T23:56:31.311Z,1.75
2023-03-02T23:58:59.111Z,1.75
